Skip Navigation Links Skip Navigation Links

Current Weather

Tiruchchirapalli, India

For information only: do not use for flight planning or navigation.
Latest weather
Observation time Tuesday, October 19, 2021 3:00 PM IST
Local time Tuesday, October 19, 2021 3:11 PM IST
Flight conditions Marginal Visual Meteorological Conditions
Winds
Wind direction West-Southwest (240°)
Wind speed 7 mph
Visibility 3.7 mi.
Sky condition
Ceiling unlimited
Cloud layer scattered clouds 1,600 ft.
Cloud layer scattered clouds 8,000 ft.
Temperature 93°F
Dewpoint 70°F
Altimeter 29.74 in.Hg
Derived measurements
Relative humidity 47%
Heat index 99°F
Density altitude 2994 ft.
Remarks
No significant changes expected in the next two hours.
METAR VOTR 190930Z 24006KT 6000 SCT016 SCT080 34/21 Q1007 NOSIG

Settings

Location code

InnerDrive.Weather 4.0.6770.0 Release CLR 4.0.30319.42000
Copyright ©2018 Inner Drive Technology. All rights reserved. Portions Copyright ©1986-2018 David Braverman.

Find weather

Site navigation


Skip Navigation Links

Place info

Page info

PayPal - The safer, easier way to pay online!

Return home.

Copyright ©2021 Inner Drive Technology. Purveyors of fine, hand-crafted computer software. Page printed 2021-10-19T09:41:36 UTC.